KSTK/STK METAR and TAF weather

Enter ICAO airport designator
Station Type Date Time Source
KSTK METAR 2019/12/10 19:30 UTC NOAA

KSTK 101930Z AUTO 00000KT 10SM CLR 02/M04 A3015 RMK AO2


Station Type Date Time Source
KSTK Decoded METAR 2019/12/10 19:30 UTC NOAA

Station name not available
Dec 10, 2019 - 02:30 PM EST / 2019.12.10 1930 UTC
Wind: Calm:0
Visibility: 10 mile(s):0
Sky conditions: clear
Temperature: 35 F (2 C)
Dew Point: 24 F (-4 C)
Relative Humidity: 64%
Pressure (altimeter): 30.15 in. Hg (1020 hPa)
ob: KSTK 101930Z AUTO 00000KT 10SM CLR 02/M04 A3015 RMK AO2
cycle: 19

Station Type Date Time Source
KSTK TAF UTC NOAA

Error!

Example: see airport list